Terminal Aerodrome Forecast
Issued by NWS

Home | Current Version | Previous Version | Text Only | Print | Product List | Glossary On
Versions: 1 2 3 4 5 6 7 8 9 10 11 12
000
FTAK31 PANC 210545
TAFAVD
TAF
PAVD 210545Z 2106/2206 08003KT P6SM SCT120
     FM211800 08008KT P6SM -SHSN SCT040 OVC060
     FM212100 08008KT 6SM -SHSN OVC040
      AMD LTD TO CLD VIS AND WIND=

USA.gov is the U.S. government's official web portal to all federal, state and local government web resources and services.